Time;durP1;ratioP1;P1;durP2;ratioP2;P2;SDS_P1;SDS_P2;PMS_P1;PMS_P2;Temp;Humidity;BMP_temperature;BMP_pressure;BME280_temperature;BME280_humidity;BME280_pressure;Samples;Min_cycle;Max_cycle;Signal;HPM_P1;HPM_P2
2021/10/28 00:14:05;;;;;;;;;6.75;6.75;;;;;;;;5096980;28;8797;-75
2021/10/28 00:16:33;;;;;;;;;11.00;11.00;;;;;;;;5095932;28;8805;-78
2021/10/28 00:19:01;;;;;;;;;14.00;11.25;;;;;;;;5099090;28;8762;-77
2021/10/28 00:21:30;;;;;;;;;12.50;11.75;;;;;;;;5098303;28;8867;-77
2021/10/28 00:24:00;;;;;;;;;10.00;10.00;;;;;;;;5098693;28;8821;-77
2021/10/28 00:26:25;;;;;;;;;12.00;10.25;;;;;;;;5096122;28;8890;-77
2021/10/28 00:28:57;;;;;;;;;9.00;9.00;;;;;;;;5099240;28;8917;-78
2021/10/28 00:31:24;;;;;;;;;13.50;11.75;;;;;;;;5114320;28;8775;-75
2021/10/28 00:33:49;;;;;;;;;11.00;11.00;;;;;;;;5116850;28;8800;-75
2021/10/28 00:36:14;;;;;;;;;13.33;11.67;;;;;;;;5117240;27;9665;-75
2021/10/28 00:38:39;;;;;;;;;15.00;12.00;;;;;;;;5117379;27;8818;-75
2021/10/28 00:41:06;;;;;;;;;12.00;10.00;;;;;;;;5118494;27;8845;-77
2021/10/28 00:43:32;;;;;;;;;13.75;12.75;;;;;;;;5118254;27;8763;-77
2021/10/28 00:45:58;;;;;;;;;10.25;9.75;;;;;;;;5119376;27;8783;-78
2021/10/28 00:48:23;;;;;;;;;14.00;12.00;;;;;;;;5117798;28;8868;-77
2021/10/28 00:50:53;;;;;;;;;12.33;12.00;;;;;;;;5119121;27;11491;-77
2021/10/28 00:53:19;;;;;;;;;12.00;11.50;;;;;;;;5117421;28;8791;-78
2021/10/28 00:55:45;;;;;;;;;10.00;10.00;;;;;;;;5115737;28;8788;-75
2021/10/28 00:58:11;;;;;;;;;10.50;10.50;;;;;;;;5116924;27;8759;-75
2021/10/28 01:00:36;;;;;;;;;9.67;9.67;;;;;;;;5116743;27;8925;-75
2021/10/28 01:03:02;;;;;;;;;9.67;9.00;;;;;;;;5117588;27;8840;-77
2021/10/28 01:05:30;;;;;;;;;10.00;10.00;;;;;;;;5117875;27;8892;-77
2021/10/28 01:08:06;;;;;;;;;10.25;10.00;;;;;;;;5117777;27;8857;-78
2021/10/28 01:10:31;;;;;;;;;13.00;12.00;;;;;;;;5117412;27;8791;-78
2021/10/28 01:12:56;;;;;;;;;11.00;9.33;;;;;;;;5118255;27;8953;-78
2021/10/28 01:15:22;;;;;;;;;13.00;11.33;;;;;;;;5118089;27;8787;-78
2021/10/28 01:17:47;;;;;;;;;10.67;10.67;;;;;;;;5115310;28;8819;-76
2021/10/28 01:20:13;;;;;;;;;13.67;12.00;;;;;;;;5116741;27;8864;-75
2021/10/28 01:22:39;;;;;;;;;11.00;10.00;;;;;;;;5119484;27;8791;-77
2021/10/28 01:25:05;;;;;;;;;10.50;10.00;;;;;;;;5122065;27;8771;-78
2021/10/28 01:27:30;;;;;;;;;10.67;10.67;;;;;;;;5122468;27;8866;-78
2021/10/28 01:29:55;;;;;;;;;11.00;11.00;;;;;;;;5116927;28;8793;-78
2021/10/28 01:32:23;;;;;;;;;7.00;6.00;;;;;;;;5099354;28;9609;-76
2021/10/28 01:34:48;;;;;;;;;7.25;7.25;;;;;;;;5100299;28;8816;-78
2021/10/28 01:37:15;;;;;;;;;5.00;5.00;;;;;;;;5098905;28;8810;-75
2021/10/28 01:39:41;;;;;;;;;10.75;9.25;;;;;;;;5099749;28;9861;-75
2021/10/28 01:42:10;;;;;;;;;12.00;12.00;;;;;;;;5099463;28;8924;-75
2021/10/28 01:44:36;;;;;;;;;12.50;12.50;;;;;;;;5099727;28;8790;-75
2021/10/28 01:47:02;;;;;;;;;11.25;11.25;;;;;;;;5099319;28;8832;-75
2021/10/28 01:49:28;;;;;;;;;10.00;9.67;;;;;;;;5098124;28;8805;-75
2021/10/28 01:51:54;;;;;;;;;13.25;12.50;;;;;;;;5099214;28;8821;-75
2021/10/28 01:54:21;;;;;;;;;11.00;10.50;;;;;;;;5099081;28;8873;-76
2021/10/28 01:56:46;;;;;;;;;12.75;12.25;;;;;;;;5098057;28;8786;-76
2021/10/28 01:59:11;;;;;;;;;10.33;10.00;;;;;;;;5099337;28;8879;-75
2021/10/28 02:01:37;;;;;;;;;12.67;12.00;;;;;;;;5099514;28;9055;-75
2021/10/28 02:04:03;;;;;;;;;9.67;9.67;;;;;;;;5098930;28;8786;-78
2021/10/28 02:06:30;;;;;;;;;10.75;10.00;;;;;;;;5099294;28;8798;-77
2021/10/28 02:08:55;;;;;;;;;13.75;13.25;;;;;;;;5100711;28;8761;-78
2021/10/28 02:11:21;;;;;;;;;15.33;15.33;;;;;;;;5099189;28;8809;-77
2021/10/28 02:13:46;;;;;;;;;16.00;14.67;;;;;;;;5098659;28;9167;-75
2021/10/28 02:16:12;;;;;;;;;12.00;12.00;;;;;;;;5098967;28;8781;-76
2021/10/28 02:18:37;;;;;;;;;16.67;16.00;;;;;;;;5097486;28;8822;-75
2021/10/28 02:21:05;;;;;;;;;13.00;13.00;;;;;;;;5097506;28;8978;-75
2021/10/28 02:23:31;;;;;;;;;14.00;14.00;;;;;;;;5097511;28;8794;-75
2021/10/28 02:25:56;;;;;;;;;14.33;14.00;;;;;;;;5097436;28;8809;-75
2021/10/28 02:28:22;;;;;;;;;15.00;13.33;;;;;;;;5097482;28;8825;-75
2021/10/28 02:30:47;;;;;;;;;14.33;13.33;;;;;;;;5111383;28;8828;-75
2021/10/28 02:33:13;;;;;;;;;12.33;12.33;;;;;;;;5117512;28;8803;-76
2021/10/28 02:35:38;;;;;;;;;15.00;15.00;;;;;;;;5117769;28;8821;-75
2021/10/28 02:38:04;;;;;;;;;13.33;13.33;;;;;;;;5118201;28;8803;-78
2021/10/28 02:40:32;;;;;;;;;15.00;15.00;;;;;;;;5118229;28;8823;-75
2021/10/28 02:42:57;;;;;;;;;12.25;12.00;;;;;;;;5118273;28;8783;-77
2021/10/28 02:45:23;;;;;;;;;13.33;13.33;;;;;;;;5117898;28;9576;-75
2021/10/28 02:47:53;;;;;;;;;12.00;12.00;;;;;;;;5119019;27;8890;-75
2021/10/28 02:50:19;;;;;;;;;14.75;14.75;;;;;;;;5119223;27;8783;-78
2021/10/28 02:52:44;;;;;;;;;14.00;14.00;;;;;;;;5118998;27;8806;-77
2021/10/28 02:55:10;;;;;;;;;13.00;12.33;;;;;;;;5117629;28;8807;-75
2021/10/28 02:57:35;;;;;;;;;12.00;12.00;;;;;;;;5118920;27;8822;-75
2021/10/28 03:00:00;;;;;;;;;14.00;14.00;;;;;;;;5118889;27;8807;-75
2021/10/28 03:02:26;;;;;;;;;14.67;14.67;;;;;;;;5119083;27;8803;-77
2021/10/28 03:04:52;;;;;;;;;13.67;13.67;;;;;;;;5117838;28;8925;-76
2021/10/28 03:07:17;;;;;;;;;18.00;16.33;;;;;;;;5118596;28;8852;-76
2021/10/28 03:09:43;;;;;;;;;16.33;15.33;;;;;;;;5117567;28;8802;-77
2021/10/28 03:12:09;;;;;;;;;18.33;17.00;;;;;;;;5119373;27;8803;-77
2021/10/28 03:14:40;;;;;;;;;20.00;14.33;;;;;;;;5118014;28;8810;-77
2021/10/28 03:27:43;;;;;;;;;16.00;15.00;;;;;;;;5118414;28;8851;-75
2021/10/28 03:30:09;;;;;;;;;16.67;15.00;;;;;;;;5109617;28;8891;-75
2021/10/28 03:32:34;;;;;;;;;13.67;13.67;;;;;;;;5097640;28;8781;-75
2021/10/28 03:35:00;;;;;;;;;15.00;14.00;;;;;;;;5098428;28;8794;-78
2021/10/28 03:37:36;;;;;;;;;14.67;14.67;;;;;;;;5096859;28;8806;-77
2021/10/28 04:06:26;;;;;;;;;17.25;15.75;;;;;;;;5097255;28;8805;-75
2021/10/28 04:19:45;;;;;;;;;17.50;14.00;;;;;;;;5097316;28;8770;-77
2021/10/28 04:30:16;;;;;;;;;17.67;16.33;;;;;;;;5104686;28;8836;-77
2021/10/28 04:32:41;;;;;;;;;15.00;15.00;;;;;;;;5117134;27;8922;-74
2021/10/28 04:35:07;;;;;;;;;19.00;16.67;;;;;;;;5115894;28;8907;-75
2021/10/28 04:37:33;;;;;;;;;19.00;17.00;;;;;;;;5115832;28;8906;-75
2021/10/28 04:39:58;;;;;;;;;20.00;16.33;;;;;;;;5117366;27;8791;-75
2021/10/28 04:42:23;;;;;;;;;16.33;15.33;;;;;;;;5117073;27;8885;-75
2021/10/28 04:44:49;;;;;;;;;17.67;17.67;;;;;;;;5117251;27;8787;-75
2021/10/28 04:47:14;;;;;;;;;18.33;16.00;;;;;;;;5116981;27;8779;-75
2021/10/28 04:49:39;;;;;;;;;20.00;17.33;;;;;;;;5115828;28;8806;-75
2021/10/28 04:52:05;;;;;;;;;16.67;16.67;;;;;;;;5116978;27;8775;-75
2021/10/28 04:54:31;;;;;;;;;16.75;16.25;;;;;;;;5116822;27;8850;-75
2021/10/28 04:56:56;;;;;;;;;16.00;14.67;;;;;;;;5117086;27;8772;-75
2021/10/28 04:59:22;;;;;;;;;20.00;19.00;;;;;;;;5117013;27;8802;-75
2021/10/28 05:01:47;;;;;;;;;16.67;15.00;;;;;;;;5116697;27;8888;-74
2021/10/28 05:04:13;;;;;;;;;17.67;14.67;;;;;;;;5115666;28;8823;-78
2021/10/28 05:06:38;;;;;;;;;14.00;13.33;;;;;;;;5117258;27;9661;-77
2021/10/28 05:09:04;;;;;;;;;20.67;20.00;;;;;;;;5115742;28;9530;-79
2021/10/28 05:11:29;;;;;;;;;20.00;17.00;;;;;;;;5116785;27;8787;-77
2021/10/28 05:13:55;;;;;;;;;19.67;18.33;;;;;;;;5116623;28;9036;-77
2021/10/28 05:16:20;;;;;;;;;22.00;22.00;;;;;;;;5130998;27;8819;-78
2021/10/28 05:18:45;;;;;;;;;28.25;28.25;;;;;;;;5129487;28;8937;-75
2021/10/28 05:21:12;;;;;;;;;26.67;25.33;;;;;;;;5123530;28;8826;-75
2021/10/28 05:23:38;;;;;;;;;22.67;19.67;;;;;;;;5121730;28;8791;-75
2021/10/28 05:26:04;;;;;;;;;20.33;19.33;;;;;;;;5120841;28;9132;-75
2021/10/28 05:28:29;;;;;;;;;20.33;20.33;;;;;;;;5122998;28;10372;-75
2021/10/28 05:30:54;;;;;;;;;21.00;18.33;;;;;;;;5124501;28;8787;-76
2021/10/28 05:33:19;;;;;;;;;18.33;18.00;;;;;;;;5119089;28;8779;-77
2021/10/28 05:35:45;;;;;;;;;19.00;18.00;;;;;;;;5128291;28;8806;-77
2021/10/28 05:38:10;;;;;;;;;22.67;20.33;;;;;;;;5128542;28;8814;-76
2021/10/28 05:40:35;;;;;;;;;18.33;18.33;;;;;;;;5129934;28;8755;-76
2021/10/28 05:43:01;;;;;;;;;19.67;17.00;;;;;;;;5130888;27;8779;-76
2021/10/28 05:45:30;;;;;;;;;19.00;17.00;;;;;;;;5129738;28;8754;-74
2021/10/28 05:47:57;;;;;;;;;24.00;20.67;;;;;;;;5128436;28;8941;-75
2021/10/28 05:50:24;;;;;;;;;21.00;21.00;;;;;;;;5124608;27;8966;-74
2021/10/28 05:52:52;;;;;;;;;24.33;21.67;;;;;;;;5123349;28;9008;-74
2021/10/28 05:55:18;;;;;;;;;21.33;21.33;;;;;;;;5121807;28;9271;-74
2021/10/28 05:57:44;;;;;;;;;20.00;17.67;;;;;;;;5123192;28;9325;-76
2021/10/28 06:00:10;;;;;;;;;19.00;18.67;;;;;;;;5122986;28;9195;-75
2021/10/28 06:02:35;;;;;;;;;17.00;16.33;;;;;;;;5120013;28;8810;-75
2021/10/28 06:05:01;;;;;;;;;23.00;23.00;;;;;;;;5123028;28;8799;-76
2021/10/28 06:07:26;;;;;;;;;24.33;23.33;;;;;;;;5118532;28;8827;-76
2021/10/28 06:09:51;;;;;;;;;23.33;22.67;;;;;;;;5120571;28;8783;-77
2021/10/28 06:12:17;;;;;;;;;23.33;22.00;;;;;;;;5123245;28;8807;-75
2021/10/28 06:14:42;;;;;;;;;25.00;24.00;;;;;;;;5124291;28;8857;-76
2021/10/28 06:17:09;;;;;;;;;21.67;20.33;;;;;;;;5129508;28;8803;-78
2021/10/28 06:19:35;;;;;;;;;22.00;22.00;;;;;;;;5129349;28;8716;-78
2021/10/28 06:22:00;;;;;;;;;20.33;19.00;;;;;;;;5126857;28;9062;-76
2021/10/28 06:24:26;;;;;;;;;27.00;23.00;;;;;;;;5131203;28;9081;-75
2021/10/28 06:26:51;;;;;;;;;19.00;19.00;;;;;;;;5132004;28;8771;-76
2021/10/28 06:29:16;;;;;;;;;21.00;18.00;;;;;;;;5125369;27;8902;-75
2021/10/28 06:31:43;;;;;;;;;20.67;18.33;;;;;;;;5123611;28;9625;-76
2021/10/28 06:34:17;;;;;;;;;24.33;24.33;;;;;;;;5120353;28;8783;-75
2021/10/28 06:36:42;;;;;;;;;23.00;22.00;;;;;;;;5121211;27;8937;-74
2021/10/28 06:39:08;;;;;;;;;20.00;20.00;;;;;;;;5122854;27;9051;-77
2021/10/28 06:41:33;;;;;;;;;21.00;20.00;;;;;;;;5119478;27;8925;-76
2021/10/28 06:44:00;;;;;;;;;24.67;21.67;;;;;;;;5119364;27;8898;-76
2021/10/28 06:46:26;;;;;;;;;22.33;21.00;;;;;;;;5119322;28;8822;-76
2021/10/28 06:48:51;;;;;;;;;23.00;21.33;;;;;;;;5120873;27;9022;-77
2021/10/28 06:51:18;;;;;;;;;25.33;23.67;;;;;;;;5120360;27;8811;-78
2021/10/28 06:53:54;;;;;;;;;23.33;22.33;;;;;;;;5118703;27;8767;-74
2021/10/28 07:04:53;;;;;;;;;25.33;23.00;;;;;;;;5055788;28;9290;-75
2021/10/28 07:07:19;;;;;;;;;24.00;21.00;;;;;;;;5056559;28;9144;-77
2021/10/28 07:09:50;;;;;;;;;24.67;23.00;;;;;;;;5086512;27;9067;-75
2021/10/28 07:12:27;;;;;;;;;20.67;19.33;;;;;;;;5120115;28;9256;-75
2021/10/28 07:14:57;;;;;;;;;25.67;23.33;;;;;;;;5123890;27;8874;-77
2021/10/28 08:16:11;;;;;;;;;19.67;18.00;;;;;;;;5097225;28;9001;-77
2021/10/28 08:29:20;;;;;;;;;18.00;18.00;;;;;;;;5097008;28;9106;-78
2021/10/28 08:31:34;;;;;;;;;20.00;19.00;;;;;;;;5115420;27;9072;-77
2021/10/28 08:34:00;;;;;;;;;29.00;27.00;;;;;;;;5117445;27;8897;-77
2021/10/28 08:36:27;;;;;;;;;22.00;21.33;;;;;;;;5117539;27;8784;-78
2021/10/28 08:38:53;;;;;;;;;23.00;20.67;;;;;;;;5117186;27;8747;-78
2021/10/28 08:41:20;;;;;;;;;21.67;19.67;;;;;;;;5117223;27;8892;-78
2021/10/28 08:43:46;;;;;;;;;20.00;19.00;;;;;;;;5116091;28;8799;-78
2021/10/28 08:46:12;;;;;;;;;22.00;21.33;;;;;;;;5116885;27;8990;-78
2021/10/28 08:48:41;;;;;;;;;18.33;17.33;;;;;;;;5117246;27;8759;-77
2021/10/28 08:51:37;;;;;;;;;18.00;17.00;;;;;;;;5117096;27;9856;-78
2021/10/28 08:56:50;;;;;;;;;20.33;19.00;;;;;;;;5116996;27;8751;-77
2021/10/28 09:24:22;;;;;;;;;19.67;19.00;;;;;;;;5122852;28;9669;-76
2021/10/28 09:26:55;;;;;;;;;19.00;18.50;;;;;;;;5131701;27;8922;-78
2021/10/28 09:51:09;;;;;;;;;18.25;17.00;;;;;;;;5111880;28;8794;-76
2021/10/28 09:59:22;;;;;;;;;21.00;17.50;;;;;;;;5099898;28;8794;-77
2021/10/28 10:01:47;;;;;;;;;19.00;17.75;;;;;;;;5104368;28;8750;-81
2021/10/28 10:04:14;;;;;;;;;16.33;16.33;;;;;;;;5104175;28;9537;-79
2021/10/28 10:06:42;;;;;;;;;18.25;17.75;;;;;;;;5102989;28;8900;-80
2021/10/28 10:09:08;;;;;;;;;16.75;15.00;;;;;;;;5100656;28;8766;-79
2021/10/28 10:11:33;;;;;;;;;19.00;19.00;;;;;;;;5100880;28;9630;-78
2021/10/28 10:13:58;;;;;;;;;15.00;15.00;;;;;;;;5099901;28;8830;-75
2021/10/28 10:16:24;;;;;;;;;15.33;15.33;;;;;;;;5100178;28;8846;-76
2021/10/28 10:18:52;;;;;;;;;16.67;15.67;;;;;;;;5103481;28;8821;-77
2021/10/28 10:21:35;;;;;;;;;14.00;14.00;;;;;;;;5099122;28;8828;-76
2021/10/28 10:24:10;;;;;;;;;14.50;14.25;;;;;;;;5099046;28;8812;-76
2021/10/28 10:27:14;;;;;;;;;15.00;14.50;;;;;;;;5099108;28;8761;-79
2021/10/28 11:16:05;;;;;;;;;14.50;14.00;;;;;;;;5118762;28;8779;-79
2021/10/28 12:24:51;;;;;;;;;14.33;14.33;;;;;;;;5108602;28;8906;-80
2021/10/28 12:52:51;;;;;;;;;12.25;12.25;;;;;;;;5101226;28;8790;-79
2021/10/28 14:19:28;;;;;;;;;7.50;7.50;;;;;;;;5119934;28;8795;-78
2021/10/28 14:59:40;;;;;;;;;8.00;8.00;;;;;;;;5130051;28;8763;-78
2021/10/28 15:35:13;;;;;;;;;9.50;9.50;;;;;;;;5119616;27;8767;-78
2021/10/28 15:37:53;;;;;;;;;9.75;9.75;;;;;;;;5121314;27;8885;-77
2021/10/28 15:54:13;;;;;;;;;10.00;7.75;;;;;;;;5117540;28;8795;-79
2021/10/28 16:23:54;;;;;;;;;13.75;13.75;;;;;;;;5117624;28;8783;-77
2021/10/28 16:26:19;;;;;;;;;17.00;16.33;;;;;;;;5117744;28;8813;-80
2021/10/28 16:28:45;;;;;;;;;18.67;18.00;;;;;;;;5116605;28;8992;-76
2021/10/28 16:31:12;;;;;;;;;24.67;22.33;;;;;;;;5116791;28;8933;-76
2021/10/28 16:33:39;;;;;;;;;14.50;13.50;;;;;;;;5117329;27;8767;-76
2021/10/28 16:36:04;;;;;;;;;18.50;17.75;;;;;;;;5116045;28;8813;-77
2021/10/28 16:38:30;;;;;;;;;16.00;16.00;;;;;;;;5117235;27;8883;-76
2021/10/28 16:40:55;;;;;;;;;16.67;16.00;;;;;;;;5115842;28;8819;-77
2021/10/28 16:43:20;;;;;;;;;14.67;14.67;;;;;;;;5117358;27;8803;-77
2021/10/28 16:45:46;;;;;;;;;13.67;12.67;;;;;;;;5117320;27;8956;-78
2021/10/28 16:48:12;;;;;;;;;11.00;11.00;;;;;;;;5115905;28;9035;-78
2021/10/28 16:50:37;;;;;;;;;14.33;12.67;;;;;;;;5117016;27;8897;-78
2021/10/28 16:53:04;;;;;;;;;14.00;12.00;;;;;;;;5116475;27;8821;-78
2021/10/28 16:55:29;;;;;;;;;13.75;13.25;;;;;;;;5116807;27;8768;-78
2021/10/28 16:57:55;;;;;;;;;13.00;12.00;;;;;;;;5117034;27;8791;-74
2021/10/28 17:00:20;;;;;;;;;13.67;13.67;;;;;;;;5115645;28;8912;-76
2021/10/28 17:02:45;;;;;;;;;16.67;15.67;;;;;;;;5117529;27;8795;-76
2021/10/28 17:05:12;;;;;;;;;15.00;15.00;;;;;;;;5117073;27;8819;-76
2021/10/28 17:07:37;;;;;;;;;15.50;13.75;;;;;;;;5116839;27;8716;-76
2021/10/28 17:10:04;;;;;;;;;16.00;14.00;;;;;;;;5115475;28;8896;-78
2021/10/28 17:12:29;;;;;;;;;16.00;14.75;;;;;;;;5116775;27;8764;-78
2021/10/28 17:14:54;;;;;;;;;16.33;15.00;;;;;;;;5116766;27;8885;-77
2021/10/28 17:17:20;;;;;;;;;10.67;10.33;;;;;;;;5116543;27;9543;-78
2021/10/28 17:19:47;;;;;;;;;14.00;14.00;;;;;;;;5116755;27;9626;-75
2021/10/28 17:22:12;;;;;;;;;17.00;16.00;;;;;;;;5102136;27;9741;-77
2021/10/28 17:24:44;;;;;;;;;19.00;16.33;;;;;;;;5093219;28;8810;-78
2021/10/28 17:27:10;;;;;;;;;16.25;16.25;;;;;;;;5094753;28;8786;-77
2021/10/28 17:29:35;;;;;;;;;19.33;19.33;;;;;;;;5099238;28;8794;-78
2021/10/28 17:32:00;;;;;;;;;21.00;20.00;;;;;;;;5116707;27;8811;-79
2021/10/28 17:34:26;;;;;;;;;17.67;14.33;;;;;;;;5117081;27;8791;-76
2021/10/28 17:36:53;;;;;;;;;19.50;18.25;;;;;;;;5115328;28;8775;-80
2021/10/28 17:39:20;;;;;;;;;16.25;15.00;;;;;;;;5116616;27;8830;-79
2021/10/28 17:41:46;;;;;;;;;16.50;16.50;;;;;;;;5114860;28;9271;-80
2021/10/28 17:44:11;;;;;;;;;13.00;13.00;;;;;;;;5116274;27;8827;-80
2021/10/28 17:46:36;;;;;;;;;12.67;12.67;;;;;;;;5116632;27;8803;-83
2021/10/28 17:49:01;;;;;;;;;18.00;16.67;;;;;;;;5117233;27;8799;-79
2021/10/28 17:51:27;;;;;;;;;17.33;14.33;;;;;;;;5115866;28;8822;-80
2021/10/28 17:53:52;;;;;;;;;20.00;17.67;;;;;;;;5116332;27;8806;-80
2021/10/28 17:56:18;;;;;;;;;12.00;12.00;;;;;;;;5117733;27;8859;-80
2021/10/28 17:58:44;;;;;;;;;18.67;14.67;;;;;;;;5118445;27;8795;-79
2021/10/28 18:01:11;;;;;;;;;18.00;17.50;;;;;;;;5121240;27;8807;-81
2021/10/28 18:03:36;;;;;;;;;16.25;15.75;;;;;;;;5123567;28;8840;-80
2021/10/28 18:06:01;;;;;;;;;15.67;14.00;;;;;;;;5127542;27;8810;-80
2021/10/28 18:08:27;;;;;;;;;17.00;17.00;;;;;;;;5128721;27;8771;-79
2021/10/28 18:10:52;;;;;;;;;16.00;15.33;;;;;;;;5120336;28;9575;-78
2021/10/28 18:13:18;;;;;;;;;15.67;14.00;;;;;;;;5117832;28;8935;-80
2021/10/28 18:15:44;;;;;;;;;20.25;18.00;;;;;;;;5119257;27;8798;-79
2021/10/28 18:18:09;;;;;;;;;17.00;15.67;;;;;;;;5119304;27;8803;-83
2021/10/28 18:20:35;;;;;;;;;16.67;16.67;;;;;;;;5119487;27;8799;-82
2021/10/28 18:23:00;;;;;;;;;16.25;15.75;;;;;;;;5117775;28;9415;-79
2021/10/28 18:25:26;;;;;;;;;19.00;18.67;;;;;;;;5119230;27;8775;-79
2021/10/28 18:27:57;;;;;;;;;15.67;15.67;;;;;;;;5119106;27;8811;-79
2021/10/28 18:30:24;;;;;;;;;18.00;16.75;;;;;;;;5109547;27;8828;-80
2021/10/28 18:32:49;;;;;;;;;15.00;15.00;;;;;;;;5096425;28;8790;-80
2021/10/28 18:35:15;;;;;;;;;17.33;17.33;;;;;;;;5098586;28;8890;-79
2021/10/28 18:37:44;;;;;;;;;17.33;14.33;;;;;;;;5090885;28;8831;-80
2021/10/28 18:40:10;;;;;;;;;15.50;15.50;;;;;;;;5107866;28;8876;-79
2021/10/28 18:42:35;;;;;;;;;19.00;18.67;;;;;;;;5103034;28;8818;-81
2021/10/28 18:45:02;;;;;;;;;19.00;18.33;;;;;;;;5097431;28;8924;-81
2021/10/28 18:47:28;;;;;;;;;20.25;18.50;;;;;;;;5098606;28;8761;-78
2021/10/28 18:49:53;;;;;;;;;21.00;21.00;;;;;;;;5098946;28;8782;-80
2021/10/28 18:52:18;;;;;;;;;30.00;28.33;;;;;;;;5089588;28;8911;-82
2021/10/28 18:54:45;;;;;;;;;24.00;22.33;;;;;;;;5086742;28;8850;-81
2021/10/28 18:57:11;;;;;;;;;20.50;18.50;;;;;;;;5093769;28;8767;-81
2021/10/28 18:59:36;;;;;;;;;23.67;22.00;;;;;;;;5091053;28;8899;-81
2021/10/28 19:02:02;;;;;;;;;20.00;20.00;;;;;;;;5092020;28;8919;-80
2021/10/28 19:04:27;;;;;;;;;24.00;21.33;;;;;;;;5092935;28;8843;-80
2021/10/28 19:06:53;;;;;;;;;22.67;20.67;;;;;;;;5086935;28;8964;-80
2021/10/28 19:09:20;;;;;;;;;23.00;22.75;;;;;;;;5091552;28;8750;-80
2021/10/28 19:11:45;;;;;;;;;25.00;23.00;;;;;;;;5091852;28;8812;-81
2021/10/28 19:14:11;;;;;;;;;26.67;26.00;;;;;;;;5088356;28;9005;-79
2021/10/28 19:16:36;;;;;;;;;28.33;26.33;;;;;;;;5094357;28;8809;-80
2021/10/28 19:19:02;;;;;;;;;29.00;26.67;;;;;;;;5095685;28;8915;-80
2021/10/28 19:21:28;;;;;;;;;26.67;26.67;;;;;;;;5095045;28;8798;-78
2021/10/28 19:23:54;;;;;;;;;29.00;26.33;;;;;;;;5092539;28;9220;-80
2021/10/28 19:26:19;;;;;;;;;23.00;21.00;;;;;;;;5091315;28;8906;-79
2021/10/28 19:28:44;;;;;;;;;21.67;20.67;;;;;;;;5087230;28;8800;-79
2021/10/28 19:31:16;;;;;;;;;18.67;18.67;;;;;;;;5084036;28;8832;-79
2021/10/28 19:33:45;;;;;;;;;22.33;22.33;;;;;;;;5081409;28;8802;-79
2021/10/28 19:36:15;;;;;;;;;20.25;20.25;;;;;;;;5096934;28;8969;-79
2021/10/28 19:46:24;;;;;;;;;17.00;16.75;;;;;;;;5087333;28;9731;-78
2021/10/28 19:48:50;;;;;;;;;14.67;14.67;;;;;;;;5083651;28;8850;-79
2021/10/28 19:51:16;;;;;;;;;19.00;16.75;;;;;;;;5080464;28;8797;-79
2021/10/28 19:53:41;;;;;;;;;17.00;14.00;;;;;;;;5081072;28;9069;-77
2021/10/28 19:56:18;;;;;;;;;16.33;15.67;;;;;;;;5084051;28;8913;-78
2021/10/28 19:58:48;;;;;;;;;15.50;14.50;;;;;;;;5082741;28;8840;-79
2021/10/28 20:06:49;;;;;;;;;16.75;14.75;;;;;;;;5064029;28;8807;-79
2021/10/28 20:20:14;;;;;;;;;16.50;13.50;;;;;;;;5075790;28;8796;-77
2021/10/28 20:22:44;;;;;;;;;13.50;12.50;;;;;;;;5076592;28;8800;-78
2021/10/28 20:25:12;;;;;;;;;14.00;12.75;;;;;;;;5076877;28;8753;-78
2021/10/28 20:27:37;;;;;;;;;15.50;13.50;;;;;;;;5074814;28;8883;-77
2021/10/28 20:30:03;;;;;;;;;13.33;13.00;;;;;;;;5089389;28;8823;-78
2021/10/28 20:32:28;;;;;;;;;16.67;13.67;;;;;;;;5098725;28;8834;-79
2021/10/28 20:35:11;;;;;;;;;13.00;13.00;;;;;;;;5116035;28;9550;-79
2021/10/28 20:37:37;;;;;;;;;13.50;13.50;;;;;;;;5117286;27;8755;-79
2021/10/28 20:40:03;;;;;;;;;14.25;12.50;;;;;;;;5117112;27;8790;-79
2021/10/28 20:42:39;;;;;;;;;13.00;11.50;;;;;;;;5117036;27;9692;-79
2021/10/28 20:45:10;;;;;;;;;14.75;12.50;;;;;;;;5117206;27;8787;-78
2021/10/28 20:47:35;;;;;;;;;10.00;10.00;;;;;;;;5116958;27;8771;-78
2021/10/28 20:50:02;;;;;;;;;15.00;14.67;;;;;;;;5116993;27;8846;-78
2021/10/28 20:52:28;;;;;;;;;13.50;13.00;;;;;;;;5116945;27;8732;-78
2021/10/28 20:54:53;;;;;;;;;13.67;13.00;;;;;;;;5115448;28;8823;-78
2021/10/28 20:57:19;;;;;;;;;15.00;13.67;;;;;;;;5115500;28;8790;-78
2021/10/28 20:59:44;;;;;;;;;12.75;12.25;;;;;;;;5115723;28;9650;-78
2021/10/28 21:02:10;;;;;;;;;16.33;15.33;;;;;;;;5116729;27;8842;-79
2021/10/28 21:04:35;;;;;;;;;14.33;12.67;;;;;;;;5115579;28;8830;-79
2021/10/28 21:07:00;;;;;;;;;11.00;11.00;;;;;;;;5116792;27;8794;-80
2021/10/28 21:09:26;;;;;;;;;13.00;12.00;;;;;;;;5115522;28;8819;-79
2021/10/28 21:11:51;;;;;;;;;15.00;13.67;;;;;;;;5116808;27;8903;-79
2021/10/28 21:14:17;;;;;;;;;13.00;13.00;;;;;;;;5116694;27;8779;-79
2021/10/28 21:16:42;;;;;;;;;13.33;12.33;;;;;;;;5116416;27;8791;-78
2021/10/28 21:19:08;;;;;;;;;13.00;12.00;;;;;;;;5116582;27;8783;-78
2021/10/28 21:21:33;;;;;;;;;10.33;10.33;;;;;;;;5114950;28;8941;-79
2021/10/28 21:23:59;;;;;;;;;12.67;11.67;;;;;;;;5116750;27;8823;-77
2021/10/28 21:26:25;;;;;;;;;11.67;10.00;;;;;;;;5116654;27;8799;-78
2021/10/28 21:28:50;;;;;;;;;11.50;11.50;;;;;;;;5116574;27;8798;-78
2021/10/28 21:31:15;;;;;;;;;12.67;12.67;;;;;;;;5099604;27;9518;-79
2021/10/28 21:33:41;;;;;;;;;12.00;12.00;;;;;;;;5096145;28;8782;-79
2021/10/28 21:36:07;;;;;;;;;15.00;15.00;;;;;;;;5094741;28;8899;-79
2021/10/28 21:38:32;;;;;;;;;13.33;12.00;;;;;;;;5094536;28;8797;-79
2021/10/28 21:40:57;;;;;;;;;12.00;12.00;;;;;;;;5099439;28;8855;-78
2021/10/28 21:43:23;;;;;;;;;13.33;12.33;;;;;;;;5099579;28;8782;-80
2021/10/28 21:45:50;;;;;;;;;13.33;13.00;;;;;;;;5097960;28;8821;-78
2021/10/28 21:48:16;;;;;;;;;12.50;11.75;;;;;;;;5098334;28;8904;-78
2021/10/28 21:50:42;;;;;;;;;12.00;12.00;;;;;;;;5099552;28;8912;-78
2021/10/28 21:53:11;;;;;;;;;16.67;13.67;;;;;;;;5099318;28;8777;-79
2021/10/28 21:55:50;;;;;;;;;12.75;12.75;;;;;;;;5099263;28;11508;-79
2021/10/28 22:25:20;;;;;;;;;13.50;13.50;;;;;;;;5098917;28;9687;-79
2021/10/28 22:27:46;;;;;;;;;15.33;13.00;;;;;;;;5097620;28;8844;-78
2021/10/28 22:30:11;;;;;;;;;14.00;12.00;;;;;;;;5106232;28;8846;-78
2021/10/28 22:32:38;;;;;;;;;11.67;11.67;;;;;;;;5119342;27;8791;-78
2021/10/28 22:35:07;;;;;;;;;14.25;11.25;;;;;;;;5119309;27;8759;-78
2021/10/28 22:37:47;;;;;;;;;14.00;13.00;;;;;;;;5119126;27;9696;-79
2021/10/28 22:42:38;;;;;;;;;14.00;13.33;;;;;;;;5119039;27;8921;-79
2021/10/28 22:45:04;;;;;;;;;13.67;13.67;;;;;;;;5119129;27;8763;-79
2021/10/28 22:47:29;;;;;;;;;11.67;11.00;;;;;;;;5118899;27;9546;-78
2021/10/28 22:49:55;;;;;;;;;12.00;12.00;;;;;;;;5118822;27;8810;-77
2021/10/28 22:52:26;;;;;;;;;12.25;12.25;;;;;;;;5118822;27;8763;-78
2021/10/28 22:54:57;;;;;;;;;15.50;15.50;;;;;;;;5118942;27;8779;-78
2021/10/28 22:57:25;;;;;;;;;12.50;12.50;;;;;;;;5119000;27;8763;-78
2021/10/28 22:59:50;;;;;;;;;13.00;12.50;;;;;;;;5119024;27;8771;-78
2021/10/28 23:05:04;;;;;;;;;15.67;15.67;;;;;;;;5118746;27;8807;-79
2021/10/28 23:15:35;;;;;;;;;13.75;13.75;;;;;;;;5118350;28;8763;-79
2021/10/28 23:20:49;;;;;;;;;12.50;12.50;;;;;;;;5096658;27;8791;-78
2021/10/28 23:23:17;;;;;;;;;14.25;14.25;;;;;;;;5118518;27;8787;-79
2021/10/28 23:25:43;;;;;;;;;9.00;9.00;;;;;;;;5118583;27;8764;-78
2021/10/28 23:28:08;;;;;;;;;15.00;14.67;;;;;;;;5118318;27;8901;-78
2021/10/28 23:30:34;;;;;;;;;16.33;15.00;;;;;;;;5107427;27;10297;-78
2021/10/28 23:32:59;;;;;;;;;14.00;14.00;;;;;;;;5097844;28;8837;-78
2021/10/28 23:35:25;;;;;;;;;12.33;12.00;;;;;;;;5097980;28;8774;-80
2021/10/28 23:37:50;;;;;;;;;14.00;13.00;;;;;;;;5097577;28;8798;-79
2021/10/28 23:40:16;;;;;;;;;12.33;12.33;;;;;;;;5097792;28;8774;-80
2021/10/28 23:42:41;;;;;;;;;14.33;14.00;;;;;;;;5096194;28;8829;-80
2021/10/28 23:45:07;;;;;;;;;14.33;13.33;;;;;;;;5097489;28;8892;-79
2021/10/28 23:47:32;;;;;;;;;12.00;11.00;;;;;;;;5096253;28;8801;-78
2021/10/28 23:49:57;;;;;;;;;14.67;14.67;;;;;;;;5096328;28;8824;-79
2021/10/28 23:52:22;;;;;;;;;13.33;12.33;;;;;;;;5097472;28;8785;-78
2021/10/28 23:54:48;;;;;;;;;15.00;12.33;;;;;;;;5097517;28;8786;-78
2021/10/28 23:57:13;;;;;;;;;13.33;13.33;;;;;;;;5097629;28;8892;-78
2021/10/28 23:59:38;;;;;;;;;12.00;12.00;;;;;;;;5097673;28;8810;-78
